Terminal Aerodrome Forecast
Issued by NWS Charleston, WV

Current Version | Previous Version | Graphics & Text | Print | Product List | Glossary On
Versions: 1 2 3 4 5 6 7 8 9 10 11 12 13 14 15 16 17 18 19 20 21 22 23 24 25 26 27 28 29 30 31
000
FTUS41 KRLX 022344
TAFCRW
TAF
KCRW 022344Z 0300/0324 00000KT 5SM HZ SCT020 OVC040
     FM030400 00000KT 4SM BR OVC020
     FM030700 00000KT 2SM BR OVC012
     FM030900 00000KT 1SM BR SCT001 OVC008
     FM031200 00000KT 3SM BR OVC010
     FM031400 00000KT 6SM HZ OVC020
     FM031700 00000KT 5SM SHRA BR VCTS SCT010 OVC020CB
     FM032100 00000KT 2SM SHRA BR VCTS SCT008 OVC015CB=

USA.gov is the U.S. government's official web portal to all federal, state and local government web resources and services.